createdAt,value
2023-01-25T00:00:31.211Z,58.47
2023-01-25T00:02:58.888Z,60.08
2023-01-25T00:05:26.164Z,54.42
2023-01-25T00:07:53.510Z,57.15
2023-01-25T00:10:24.139Z,50.75
2023-01-25T00:12:51.415Z,63.15
2023-01-25T00:15:18.708Z,64.80
2023-01-25T00:17:46.146Z,53.05
2023-01-25T00:20:13.422Z,59.60
2023-01-25T00:22:41.135Z,56.15
2023-01-25T00:25:09.001Z,50.70
2023-01-25T00:27:36.492Z,55.60
2023-01-25T00:30:04.472Z,58.55
2023-01-25T00:33:02.532Z,54.75
2023-01-25T00:38:02.630Z,68.20
2023-01-25T00:40:30.073Z,65.55
2023-01-25T00:43:00.787Z,60.20
2023-01-25T00:45:28.166Z,61.28
2023-01-25T00:47:56.411Z,72.70
2023-01-25T00:50:24.000Z,65.20
2023-01-25T00:52:51.259Z,65.47
2023-01-25T00:55:18.769Z,78.03
2023-01-25T00:57:48.990Z,66.55
2023-01-25T01:00:16.883Z,75.03
2023-01-25T01:02:44.210Z,64.30
2023-01-25T01:05:11.905Z,64.03
2023-01-25T01:07:39.832Z,67.70
2023-01-25T01:10:07.731Z,63.85
2023-01-25T01:12:35.020Z,73.25
2023-01-25T01:15:02.398Z,66.93
2023-01-25T01:17:29.670Z,83.57
2023-01-25T01:19:56.943Z,73.43
2023-01-25T01:22:24.678Z,67.50
2023-01-25T01:24:52.478Z,66.70
2023-01-25T01:27:19.645Z,70.97
2023-01-25T01:29:47.036Z,72.72
2023-01-25T01:32:14.406Z,70.70
2023-01-25T01:34:42.254Z,68.90
2023-01-25T01:37:09.482Z,73.68
2023-01-25T01:39:37.206Z,74.05
2023-01-25T01:42:04.606Z,71.70
2023-01-25T01:44:46.251Z,66.75
2023-01-25T01:47:45.849Z,75.65
2023-01-25T01:50:22.628Z,69.95
2023-01-25T01:52:51.960Z,65.43
2023-01-25T01:55:24.087Z,70.80
2023-01-25T01:57:58.800Z,68.25
2023-01-25T02:00:31.657Z,64.28
2023-01-25T02:03:01.694Z,68.25
2023-01-25T02:05:51.212Z,66.55
2023-01-25T02:08:19.762Z,70.18
2023-01-25T02:10:48.264Z,58.78
2023-01-25T02:13:16.599Z,74.13
2023-01-25T02:15:52.423Z,63.83
2023-01-25T02:18:20.290Z,66.07
2023-01-25T02:20:50.747Z,65.85
2023-01-25T02:23:43.291Z,67.35
2023-01-25T02:26:11.119Z,70.20
2023-01-25T02:28:53.065Z,76.68
2023-01-25T02:31:24.657Z,66.70
2023-01-25T02:33:52.979Z,66.35
2023-01-25T02:36:24.657Z,69.15
2023-01-25T02:38:59.433Z,68.43
2023-01-25T02:41:41.082Z,70.30
2023-01-25T02:44:20.008Z,67.25
2023-01-25T02:46:47.944Z,66.38
2023-01-25T02:49:16.221Z,57.72
2023-01-25T02:51:46.890Z,66.47
2023-01-25T02:54:15.587Z,80.80
2023-01-25T02:56:43.240Z,62.45
2023-01-25T02:59:13.406Z,61.05
2023-01-25T03:01:43.931Z,73.78
2023-01-25T03:04:12.187Z,68.63
2023-01-25T03:06:40.095Z,69.95
2023-01-25T03:09:10.211Z,72.07
2023-01-25T03:11:39.795Z,68.07
2023-01-25T03:14:07.215Z,67.30
2023-01-25T03:16:34.582Z,70.70
2023-01-25T03:19:02.853Z,61.10
2023-01-25T03:21:30.240Z,63.05
2023-01-25T03:24:01.332Z,60.15
2023-01-25T03:26:58.785Z,69.20
2023-01-25T03:29:37.945Z,66.63
2023-01-25T03:32:11.415Z,61.15
2023-01-25T03:34:38.819Z,64.65
2023-01-25T03:37:06.353Z,69.07
2023-01-25T03:39:35.496Z,63.25
2023-01-25T03:42:02.843Z,64.03
2023-01-25T03:44:31.668Z,64.07
2023-01-25T03:46:59.470Z,72.50
2023-01-25T03:49:27.969Z,64.18
2023-01-25T03:51:55.418Z,65.07
2023-01-25T03:54:28.993Z,66.40
2023-01-25T03:56:56.435Z,67.93
2023-01-25T03:59:26.330Z,74.43
2023-01-25T04:01:55.792Z,73.65
2023-01-25T04:04:23.573Z,67.43
2023-01-25T04:06:51.384Z,65.82
2023-01-25T04:09:19.023Z,67.32
2023-01-25T04:11:51.888Z,78.88
2023-01-25T04:14:31.769Z,78.95
2023-01-25T04:17:08.285Z,64.95
2023-01-25T04:19:59.722Z,80.50
2023-01-25T04:22:34.298Z,81.85
2023-01-25T04:25:03.367Z,73.80
2023-01-25T04:27:30.814Z,91.10
2023-01-25T04:30:04.970Z,73.60
2023-01-25T04:32:36.757Z,76.45
2023-01-25T04:35:09.436Z,77.82
2023-01-25T04:37:37.031Z,81.72
2023-01-25T04:40:05.669Z,78.90
2023-01-25T04:42:38.809Z,74.88
2023-01-25T04:45:07.209Z,74.03
2023-01-25T04:47:35.842Z,71.78
2023-01-25T04:50:04.274Z,73.05
2023-01-25T04:52:33.125Z,74.68
2023-01-25T04:55:01.298Z,78.00
2023-01-25T04:57:32.151Z,74.38
2023-01-25T04:59:59.903Z,78.72
2023-01-25T05:02:30.103Z,85.88
2023-01-25T05:04:57.529Z,79.32
2023-01-25T05:07:24.955Z,81.03
2023-01-25T05:09:53.729Z,77.50
2023-01-25T05:12:24.086Z,79.38
2023-01-25T05:15:02.259Z,80.45
2023-01-25T05:17:29.962Z,72.75
2023-01-25T05:19:57.380Z,80.03
2023-01-25T05:22:25.691Z,73.63
2023-01-25T05:24:54.398Z,74.85
2023-01-25T05:27:22.777Z,82.70
2023-01-25T05:32:57.567Z,72.35
2023-01-25T05:35:25.359Z,70.40
2023-01-25T05:37:59.356Z,87.78
2023-01-25T05:40:27.842Z,76.05
2023-01-25T05:42:59.953Z,72.38
2023-01-25T05:45:30.188Z,76.63
2023-01-25T05:47:58.791Z,77.60
2023-01-25T05:50:27.149Z,83.13
2023-01-25T05:53:14.694Z,82.47
2023-01-25T05:55:42.248Z,88.75
2023-01-25T05:58:14.017Z,76.38
2023-01-25T06:00:42.074Z,79.25
2023-01-25T06:03:21.811Z,84.25
2023-01-25T06:05:58.783Z,95.80
2023-01-25T06:08:26.599Z,68.13
2023-01-25T06:10:55.088Z,78.18
2023-01-25T06:13:24.856Z,78.55
2023-01-25T06:15:57.371Z,102.50
2023-01-25T06:18:43.972Z,86.85
2023-01-25T06:21:29.935Z,81.70
2023-01-25T06:23:57.281Z,77.32
2023-01-25T06:26:24.551Z,76.80
2023-01-25T06:28:55.140Z,95.25
2023-01-25T06:31:23.009Z,89.00
2023-01-25T06:33:52.154Z,89.95
2023-01-25T06:36:22.728Z,83.28
2023-01-25T06:38:51.385Z,78.80
2023-01-25T06:41:19.588Z,84.90
2023-01-25T06:43:49.967Z,79.10
2023-01-25T06:46:17.519Z,95.00
2023-01-25T06:48:45.030Z,88.05
2023-01-25T06:51:14.861Z,82.47
2023-01-25T06:53:45.862Z,84.03
2023-01-25T06:56:21.790Z,97.25
2023-01-25T06:58:50.579Z,98.88
2023-01-25T07:01:21.004Z,84.88
2023-01-25T07:03:53.505Z,96.78
2023-01-25T07:06:21.647Z,84.20
2023-01-25T07:08:49.344Z,100.75
2023-01-25T07:11:19.020Z,104.50
2023-01-25T07:13:47.879Z,99.95
2023-01-25T07:16:18.977Z,113.13
2023-01-25T07:18:46.558Z,88.93
2023-01-25T07:21:16.648Z,100.25
2023-01-25T07:23:44.885Z,109.03
2023-01-25T07:26:22.696Z,110.50
2023-01-25T07:28:50.771Z,96.60
2023-01-25T07:31:19.386Z,91.22
2023-01-25T07:33:54.240Z,105.70
2023-01-25T07:36:22.616Z,91.25
2023-01-25T07:38:53.634Z,105.15
2023-01-25T07:41:26.547Z,82.22
2023-01-25T07:43:54.452Z,93.22
2023-01-25T07:46:33.363Z,117.35
2023-01-25T07:49:00.769Z,115.50
2023-01-25T07:51:30.151Z,118.30
2023-01-25T07:53:59.904Z,100.93
2023-01-25T07:56:30.334Z,82.85
2023-01-25T07:58:59.684Z,106.50
2023-01-25T08:01:29.038Z,52.90
2023-01-25T08:03:57.305Z,73.10
2023-01-25T08:06:35.906Z,95.00
2023-01-25T08:09:09.708Z,92.28
2023-01-25T08:11:37.159Z,101.35
2023-01-25T08:14:04.580Z,89.70
2023-01-25T08:16:32.546Z,103.28
2023-01-25T08:19:02.029Z,131.68
2023-01-25T08:21:32.217Z,66.25
2023-01-25T08:24:00.899Z,91.57
2023-01-25T08:26:28.992Z,51.97
2023-01-25T08:28:57.182Z,72.43
2023-01-25T08:31:27.532Z,63.72
2023-01-25T08:33:58.624Z,87.28
2023-01-25T08:36:28.203Z,105.32
2023-01-25T08:38:58.028Z,84.78
2023-01-25T08:41:26.806Z,80.07
2023-01-25T08:43:55.484Z,89.32
2023-01-25T08:46:24.610Z,79.75
2023-01-25T08:48:56.578Z,86.32
2023-01-25T08:51:24.723Z,98.28
2023-01-25T08:53:52.045Z,86.53
2023-01-25T08:56:19.520Z,110.72
2023-01-25T08:58:48.781Z,102.07
2023-01-25T09:01:19.116Z,127.97
2023-01-25T09:03:50.233Z,92.80
2023-01-25T09:06:19.670Z,73.93
2023-01-25T09:08:47.627Z,112.88
2023-01-25T09:11:19.491Z,109.47
2023-01-25T09:13:48.781Z,67.63
2023-01-25T09:16:28.152Z,96.70
2023-01-25T09:18:58.041Z,110.53
2023-01-25T09:21:25.631Z,102.28
2023-01-25T09:24:09.692Z,101.55
2023-01-25T09:26:41.774Z,93.43
2023-01-25T09:29:11.540Z,95.53
2023-01-25T09:31:45.802Z,70.88
2023-01-25T09:34:16.104Z,103.80
2023-01-25T09:36:43.694Z,70.82
2023-01-25T09:39:14.502Z,116.90
2023-01-25T09:41:50.961Z,93.85
2023-01-25T09:44:42.116Z,113.43
2023-01-25T09:47:37.957Z,105.22
2023-01-25T09:50:24.345Z,58.55
2023-01-25T09:53:11.045Z,103.18
2023-01-25T09:55:39.320Z,110.38
2023-01-25T09:58:17.825Z,83.13
2023-01-25T10:00:50.321Z,89.25
2023-01-25T10:03:27.503Z,89.32
2023-01-25T10:05:59.987Z,97.65
2023-01-25T10:08:31.704Z,92.30
2023-01-25T10:11:15.008Z,71.65
2023-01-25T10:13:44.091Z,111.35
2023-01-25T10:16:25.985Z,96.78
2023-01-25T10:19:31.245Z,108.65
2023-01-25T10:22:15.300Z,103.88
2023-01-25T10:25:06.241Z,104.53
2023-01-25T10:27:59.693Z,136.43
2023-01-25T10:30:35.635Z,124.43
2023-01-25T10:33:11.825Z,124.90
2023-01-25T10:35:46.784Z,113.00
2023-01-25T10:38:28.388Z,97.78
2023-01-25T10:41:10.480Z,109.35
2023-01-25T10:43:38.906Z,104.05
2023-01-25T10:46:35.946Z,97.65
2023-01-25T10:49:20.701Z,94.47
2023-01-25T10:51:47.979Z,97.38
2023-01-25T10:54:16.547Z,95.05
2023-01-25T10:56:45.386Z,97.93
2023-01-25T10:59:27.022Z,86.55
2023-01-25T11:01:54.439Z,71.43
2023-01-25T11:04:31.633Z,94.65
2023-01-25T11:07:00.048Z,101.03
2023-01-25T11:09:38.965Z,97.22
2023-01-25T11:12:16.995Z,98.95
2023-01-25T11:14:44.689Z,91.82
2023-01-25T11:17:27.606Z,86.97
2023-01-25T11:20:19.521Z,85.13
2023-01-25T11:22:53.017Z,74.28
2023-01-25T11:25:32.585Z,79.90
2023-01-25T11:28:16.013Z,67.03
2023-01-25T11:30:44.001Z,60.45
2023-01-25T11:33:13.076Z,78.10
2023-01-25T11:36:04.694Z,67.05
2023-01-25T11:38:32.555Z,69.03
2023-01-25T11:41:20.992Z,56.97
2023-01-25T11:43:57.582Z,61.63
2023-01-25T11:46:50.060Z,59.72
2023-01-25T11:49:44.460Z,50.40
2023-01-25T11:52:28.939Z,47.50
2023-01-25T11:55:06.835Z,44.25
2023-01-25T11:57:43.365Z,54.80
2023-01-25T12:03:18.458Z,48.90
2023-01-25T12:06:03.684Z,48.00
2023-01-25T12:08:42.502Z,35.80
2023-01-25T12:11:42.081Z,40.40
2023-01-25T12:14:25.664Z,38.58
2023-01-25T12:17:24.062Z,29.65
2023-01-25T12:19:57.341Z,34.83
2023-01-25T12:22:49.007Z,36.10
2023-01-25T12:25:41.147Z,28.23
2023-01-25T12:28:31.312Z,28.63
2023-01-25T12:31:10.966Z,35.10
2023-01-25T12:33:53.843Z,29.92
2023-01-25T12:36:43.116Z,32.45
2023-01-25T12:39:20.675Z,24.60
2023-01-25T12:41:51.921Z,32.15
2023-01-25T12:44:21.187Z,24.48
2023-01-25T12:47:20.711Z,28.70
2023-01-25T12:49:50.807Z,41.28
2023-01-25T12:52:24.022Z,32.22
2023-01-25T12:54:55.262Z,40.97
2023-01-25T12:57:29.953Z,42.58
2023-01-25T13:00:23.587Z,43.58
2023-01-25T13:03:01.532Z,45.60
2023-01-25T13:05:40.176Z,53.33
2023-01-25T13:08:30.079Z,46.53
2023-01-25T13:11:13.972Z,60.72
2023-01-25T13:13:41.399Z,74.10
2023-01-25T13:16:30.679Z,86.93
2023-01-25T13:18:59.003Z,76.43
2023-01-25T13:21:45.078Z,90.60
2023-01-25T13:24:24.426Z,76.88
2023-01-25T13:26:54.522Z,81.65
2023-01-25T13:29:38.195Z,66.93
2023-01-25T13:32:24.756Z,64.05
2023-01-25T13:34:55.062Z,39.90
2023-01-25T13:37:26.385Z,62.42
2023-01-25T13:40:10.309Z,64.65
2023-01-25T13:42:39.548Z,58.22
2023-01-25T13:45:18.582Z,57.72
2023-01-25T13:48:19.758Z,43.58
2023-01-25T13:50:47.156Z,42.90
2023-01-25T13:53:14.511Z,45.97
2023-01-25T13:55:51.028Z,56.83
2023-01-25T13:58:44.835Z,39.53
2023-01-25T14:01:18.814Z,50.25
2023-01-25T14:03:49.180Z,60.13
2023-01-25T14:06:19.741Z,58.95
2023-01-25T14:08:48.894Z,54.80
2023-01-25T14:11:21.648Z,53.97
2023-01-25T14:14:03.931Z,53.28
2023-01-25T14:16:32.391Z,41.65
2023-01-25T14:19:22.620Z,58.80
2023-01-25T14:21:50.565Z,69.93
2023-01-25T14:24:19.339Z,66.13
2023-01-25T14:26:47.601Z,65.50
2023-01-25T14:29:36.456Z,74.85
2023-01-25T14:32:04.361Z,79.50
2023-01-25T14:34:31.733Z,75.00
2023-01-25T14:37:13.716Z,66.65
2023-01-25T14:39:41.064Z,63.03
2023-01-25T14:42:08.574Z,51.38
2023-01-25T14:44:36.307Z,75.55
2023-01-25T14:47:26.724Z,80.50
2023-01-25T14:49:54.008Z,63.60
2023-01-25T14:52:27.321Z,60.55
2023-01-25T14:54:56.287Z,74.55
2023-01-25T14:57:38.946Z,85.57
2023-01-25T15:00:45.148Z,71.80
2023-01-25T15:03:16.771Z,84.70
2023-01-25T15:05:48.350Z,79.47
2023-01-25T15:08:28.298Z,70.05
2023-01-25T15:10:57.653Z,73.75
2023-01-25T15:13:28.557Z,60.58
2023-01-25T15:16:01.075Z,70.18
2023-01-25T15:18:43.466Z,69.20
2023-01-25T15:21:13.602Z,44.20
2023-01-25T15:23:43.185Z,62.10
2023-01-25T15:26:24.963Z,62.95
2023-01-25T15:28:55.371Z,59.15
2023-01-25T15:31:29.194Z,60.92
2023-01-25T15:33:57.804Z,61.25
2023-01-25T15:36:25.527Z,75.30
2023-01-25T15:38:52.852Z,69.55
2023-01-25T15:41:20.694Z,68.95
2023-01-25T15:43:49.064Z,62.92
2023-01-25T15:46:28.499Z,58.45
2023-01-25T15:48:56.260Z,77.57
2023-01-25T15:51:23.711Z,78.43
2023-01-25T15:53:51.543Z,74.72
2023-01-25T15:56:20.934Z,61.05
2023-01-25T15:58:52.052Z,58.85
2023-01-25T16:01:19.874Z,68.10
2023-01-25T16:03:47.210Z,69.85
2023-01-25T16:06:37.515Z,61.65
2023-01-25T16:09:17.361Z,78.75
2023-01-25T16:11:45.835Z,64.07
2023-01-25T16:14:13.272Z,76.90
2023-01-25T16:16:47.371Z,65.28
2023-01-25T16:19:16.687Z,70.53
2023-01-25T16:21:44.375Z,60.78
2023-01-25T16:24:12.270Z,69.55
2023-01-25T16:26:50.467Z,78.28
2023-01-25T16:29:18.311Z,73.95
2023-01-25T16:31:45.707Z,56.40
2023-01-25T16:34:13.225Z,57.63
2023-01-25T16:36:40.702Z,53.92
2023-01-25T16:39:25.440Z,60.33
2023-01-25T16:41:53.654Z,52.75
2023-01-25T16:44:21.026Z,78.97
2023-01-25T16:46:50.056Z,53.10
2023-01-25T16:49:22.172Z,62.30
2023-01-25T16:51:50.501Z,40.88
2023-01-25T16:54:19.969Z,53.97
2023-01-25T16:56:48.544Z,54.63
2023-01-25T16:59:16.750Z,45.80
2023-01-25T17:01:44.867Z,44.03
2023-01-25T17:04:12.940Z,51.00
2023-01-25T17:06:46.397Z,55.25
2023-01-25T17:09:23.408Z,48.40
2023-01-25T17:11:53.217Z,66.25
2023-01-25T17:14:21.753Z,59.88
2023-01-25T17:16:51.609Z,56.00
2023-01-25T17:19:20.301Z,53.05
2023-01-25T17:21:47.915Z,48.97
2023-01-25T17:24:18.809Z,90.88
2023-01-25T17:26:46.421Z,58.95
2023-01-25T17:29:14.001Z,69.80
2023-01-25T17:31:44.019Z,69.88
2023-01-25T17:34:16.240Z,58.75
2023-01-25T17:36:44.927Z,62.25
2023-01-25T17:39:15.357Z,55.55
2023-01-25T17:41:48.203Z,56.72
2023-01-25T17:44:22.679Z,73.47
2023-01-25T17:46:50.408Z,76.05
2023-01-25T17:49:18.449Z,83.28
2023-01-25T17:51:45.842Z,78.57
2023-01-25T17:54:13.380Z,50.15
2023-01-25T17:56:41.158Z,87.90
2023-01-25T17:59:09.451Z,77.28
2023-01-25T18:01:37.256Z,96.70
2023-01-25T18:04:08.578Z,98.43
2023-01-25T18:06:36.749Z,55.45
2023-01-25T18:09:08.427Z,65.68
2023-01-25T18:11:37.483Z,83.65
2023-01-25T18:14:09.604Z,68.55
2023-01-25T18:16:39.108Z,77.97
2023-01-25T18:19:07.643Z,78.97
2023-01-25T18:21:35.655Z,99.70
2023-01-25T18:24:31.459Z,115.63
2023-01-25T18:27:07.896Z,98.93
2023-01-25T18:29:59.194Z,95.80
2023-01-25T18:32:27.031Z,90.50
2023-01-25T18:34:54.418Z,88.05
2023-01-25T18:37:23.303Z,83.05
2023-01-25T18:39:52.876Z,76.65
2023-01-25T18:42:21.885Z,85.22
2023-01-25T18:44:49.292Z,96.10
2023-01-25T18:47:18.893Z,94.55
2023-01-25T18:49:51.687Z,82.85
2023-01-25T18:52:21.160Z,77.47
2023-01-25T18:54:48.855Z,71.57
2023-01-25T18:57:16.641Z,106.32
2023-01-25T18:59:44.411Z,82.88
2023-01-25T19:02:16.465Z,86.43
2023-01-25T19:04:44.261Z,103.10
2023-01-25T19:07:12.187Z,97.32
2023-01-25T19:09:39.603Z,97.78
2023-01-25T19:12:07.176Z,103.10
2023-01-25T19:14:34.443Z,91.47
2023-01-25T19:17:01.868Z,85.35
2023-01-25T19:19:32.155Z,78.25
2023-01-25T19:22:00.587Z,141.50
2023-01-25T19:24:28.121Z,116.57
2023-01-25T19:26:55.789Z,110.28
2023-01-25T19:29:23.134Z,100.68
2023-01-25T19:31:50.611Z,92.07
2023-01-25T19:34:18.077Z,68.82
2023-01-25T19:36:49.983Z,74.90
2023-01-25T19:39:17.672Z,67.03
2023-01-25T19:41:45.497Z,64.18
2023-01-25T19:44:14.301Z,60.53
2023-01-25T19:46:41.725Z,71.20
2023-01-25T19:49:13.152Z,62.40
2023-01-25T19:51:44.220Z,61.30
2023-01-25T19:54:17.169Z,67.72
2023-01-25T19:56:46.884Z,64.15
2023-01-25T19:59:17.281Z,73.45
2023-01-25T20:01:46.342Z,67.72
2023-01-25T20:04:21.858Z,67.93
2023-01-25T20:06:50.255Z,69.55
2023-01-25T20:09:19.703Z,76.47
2023-01-25T20:11:47.497Z,79.75
2023-01-25T20:14:15.487Z,81.90
2023-01-25T20:16:43.176Z,87.30
2023-01-25T20:19:13.224Z,81.53
2023-01-25T20:21:40.567Z,95.78
2023-01-25T20:24:10.168Z,75.10
2023-01-25T20:26:39.879Z,79.53
2023-01-25T20:29:08.128Z,82.55
2023-01-25T20:31:54.163Z,81.10
2023-01-25T20:34:23.242Z,75.63
2023-01-25T20:36:51.512Z,81.28
2023-01-25T20:39:21.140Z,81.97
2023-01-25T20:41:51.800Z,82.78
2023-01-25T20:44:19.791Z,77.10
2023-01-25T20:46:47.142Z,83.32
2023-01-25T20:49:16.657Z,76.70
2023-01-25T20:51:44.768Z,77.25
2023-01-25T20:54:12.210Z,91.70
2023-01-25T20:56:39.763Z,66.38
2023-01-25T20:59:07.241Z,87.65
2023-01-25T21:01:36.859Z,92.68
2023-01-25T21:04:06.494Z,80.13
2023-01-25T21:06:35.602Z,79.72
2023-01-25T21:09:04.403Z,82.03
2023-01-25T21:11:32.419Z,82.68
2023-01-25T21:13:59.816Z,79.93
2023-01-25T21:16:27.612Z,90.22
2023-01-25T21:19:00.231Z,83.68
2023-01-25T21:21:29.608Z,75.00
2023-01-25T21:23:59.934Z,81.25
2023-01-25T21:26:32.529Z,70.32
2023-01-25T21:29:01.722Z,81.22
2023-01-25T21:31:32.777Z,74.97
2023-01-25T21:34:01.685Z,74.60
2023-01-25T21:36:29.352Z,78.95
2023-01-25T21:38:56.771Z,78.43
2023-01-25T21:41:29.851Z,80.05
2023-01-25T21:44:17.852Z,84.32
2023-01-25T21:47:04.214Z,70.38
2023-01-25T21:50:11.820Z,92.05
2023-01-25T21:52:39.344Z,88.47
2023-01-25T21:55:07.277Z,81.25
2023-01-25T21:57:35.519Z,98.47
2023-01-25T22:00:04.353Z,86.82
2023-01-25T22:02:32.136Z,76.10
2023-01-25T22:04:59.489Z,78.60
2023-01-25T22:07:26.788Z,77.47
2023-01-25T22:09:54.044Z,73.03
2023-01-25T22:12:21.355Z,65.20
2023-01-25T22:14:49.094Z,55.63
2023-01-25T22:17:16.286Z,64.72
2023-01-25T22:19:43.627Z,56.42
2023-01-25T22:22:11.195Z,64.97
2023-01-25T22:24:38.533Z,75.70
2023-01-25T22:27:08.629Z,47.42
2023-01-25T22:29:36.021Z,59.10
2023-01-25T22:32:04.121Z,57.03
2023-01-25T22:34:31.518Z,45.58
2023-01-25T22:36:58.914Z,48.80
2023-01-25T22:39:26.215Z,51.00
2023-01-25T22:41:53.522Z,51.17
2023-01-25T22:44:21.190Z,40.42
2023-01-25T22:46:50.555Z,34.72
2023-01-25T22:49:17.966Z,60.92
2023-01-25T22:51:45.309Z,38.58
2023-01-25T22:54:12.609Z,35.35
2023-01-25T22:56:40.252Z,38.33
2023-01-25T22:59:10.036Z,33.13
2023-01-25T23:01:37.669Z,35.17
2023-01-25T23:04:05.081Z,25.27
2023-01-25T23:06:34.326Z,25.85
2023-01-25T23:09:04.649Z,20.77
2023-01-25T23:11:37.933Z,22.30
2023-01-25T23:14:25.756Z,38.53
2023-01-25T23:19:20.243Z,28.90
2023-01-25T23:21:47.579Z,22.98
2023-01-25T23:24:14.844Z,24.10
2023-01-25T23:26:46.225Z,26.38
2023-01-25T23:29:14.489Z,24.50
2023-01-25T23:31:42.203Z,17.45
2023-01-25T23:34:11.598Z,39.85
2023-01-25T23:36:39.625Z,22.92
2023-01-25T23:39:07.047Z,23.45
2023-01-25T23:41:34.371Z,28.92
2023-01-25T23:44:01.930Z,21.85
2023-01-25T23:46:29.406Z,18.48
2023-01-25T23:48:56.915Z,20.58
2023-01-25T23:51:24.240Z,24.20
2023-01-25T23:53:53.484Z,25.83
2023-01-25T23:56:22.430Z,21.27
2023-01-25T23:58:50.205Z,32.63
